createdAt,value
2019-03-25T00:01:56.885Z,4.89
2019-03-25T00:04:27.773Z,4.85
2019-03-25T00:06:58.723Z,4.84
2019-03-25T00:09:29.633Z,4.83
2019-03-25T00:12:00.569Z,4.81
2019-03-25T00:14:31.541Z,4.79
2019-03-25T00:17:02.726Z,4.76
2019-03-25T00:19:33.622Z,4.73
2019-03-25T00:22:04.606Z,4.71
2019-03-25T00:24:39.037Z,4.70
2019-03-25T00:27:09.056Z,4.67
2019-03-25T00:29:39.944Z,4.64
2019-03-25T00:32:10.859Z,4.61
2019-03-25T00:34:41.754Z,4.58
2019-03-25T00:37:13.489Z,4.56
2019-03-25T00:39:44.399Z,4.52
2019-03-25T00:42:15.323Z,4.48
2019-03-25T00:44:46.229Z,4.44
2019-03-25T00:47:17.155Z,4.43
2019-03-25T00:49:48.042Z,4.40
2019-03-25T00:52:18.985Z,4.40
2019-03-25T00:54:50.448Z,4.39
2019-03-25T00:57:21.355Z,4.39
2019-03-25T00:59:52.251Z,4.38
2019-03-25T01:02:24.056Z,4.36
2019-03-25T01:04:54.945Z,4.33
2019-03-25T01:07:26.772Z,4.30
2019-03-25T01:09:57.668Z,4.26
2019-03-25T01:12:28.602Z,4.28
2019-03-25T01:14:59.562Z,4.27
2019-03-25T01:17:35.712Z,4.24
2019-03-25T01:20:07.280Z,4.22
2019-03-25T01:22:40.220Z,4.21
2019-03-25T01:25:11.274Z,4.18
2019-03-25T01:27:42.205Z,4.14
2019-03-25T01:30:13.200Z,4.12
2019-03-25T01:32:44.123Z,4.12
2019-03-25T01:35:15.010Z,4.12
2019-03-25T01:37:47.852Z,4.10
2019-03-25T01:40:18.745Z,4.08
2019-03-25T01:42:49.666Z,4.10
2019-03-25T01:45:20.670Z,4.11
2019-03-25T01:47:51.588Z,4.13
2019-03-25T01:50:22.487Z,4.14
2019-03-25T01:52:53.436Z,4.12
2019-03-25T01:55:24.326Z,4.11
2019-03-25T01:57:55.248Z,4.11
2019-03-25T02:00:26.151Z,4.08
2019-03-25T02:02:57.093Z,4.09
2019-03-25T02:05:27.989Z,4.10
2019-03-25T02:07:59.742Z,4.10
2019-03-25T02:10:30.642Z,4.11
2019-03-25T02:13:01.569Z,4.11
2019-03-25T02:15:32.463Z,4.10
2019-03-25T02:18:03.382Z,4.09
2019-03-25T02:20:34.268Z,4.11
2019-03-25T02:23:06.252Z,4.11
2019-03-25T02:25:38.074Z,4.10
2019-03-25T02:28:08.993Z,4.10
2019-03-25T02:30:39.904Z,4.11
2019-03-25T02:33:10.833Z,4.09
2019-03-25T02:35:41.722Z,4.11
2019-03-25T02:38:12.691Z,4.15
2019-03-25T02:40:43.570Z,4.15
2019-03-25T02:43:14.494Z,4.18
2019-03-25T02:45:45.402Z,4.18
2019-03-25T02:48:16.309Z,4.20
2019-03-25T02:50:47.212Z,4.20
2019-03-25T02:53:18.152Z,4.21
2019-03-25T02:55:49.043Z,4.23
2019-03-25T02:58:19.987Z,4.25
2019-03-25T03:00:53.225Z,4.23
2019-03-25T03:03:24.239Z,4.21
2019-03-25T03:05:55.130Z,4.19
2019-03-25T03:08:26.081Z,4.19
2019-03-25T03:10:57.040Z,4.17
2019-03-25T03:13:28.017Z,4.12
2019-03-25T03:15:59.014Z,4.10
2019-03-25T03:18:29.952Z,4.08
2019-03-25T03:21:02.828Z,4.04
2019-03-25T03:23:33.783Z,4.02
2019-03-25T03:26:04.664Z,3.97
2019-03-25T03:28:35.589Z,3.95
2019-03-25T03:31:06.583Z,3.94
2019-03-25T03:33:37.498Z,3.92
2019-03-25T03:36:08.393Z,3.91
2019-03-25T03:38:39.347Z,3.89
2019-03-25T03:41:10.262Z,3.86
2019-03-25T03:43:41.260Z,3.83
2019-03-25T03:46:12.146Z,3.83
2019-03-25T03:48:43.074Z,3.83
2019-03-25T03:51:13.972Z,3.82
2019-03-25T03:53:45.045Z,3.83
2019-03-25T03:56:16.029Z,3.84
2019-03-25T03:58:47.059Z,3.85
2019-03-25T04:01:17.942Z,3.88
2019-03-25T04:03:48.881Z,3.86
2019-03-25T04:06:19.770Z,3.84
2019-03-25T04:08:51.573Z,3.87
2019-03-25T04:11:22.472Z,3.84
2019-03-25T04:13:53.460Z,3.84
2019-03-25T04:16:24.427Z,3.84
2019-03-25T04:18:55.353Z,3.83
2019-03-25T04:21:26.263Z,3.83
2019-03-25T04:23:57.224Z,3.81
2019-03-25T04:26:29.676Z,3.82
2019-03-25T04:29:00.669Z,3.84
2019-03-25T04:31:31.565Z,3.84
2019-03-25T04:34:02.496Z,3.84
2019-03-25T04:36:33.407Z,3.87
2019-03-25T04:39:06.062Z,3.87
2019-03-25T04:41:39.545Z,3.88
2019-03-25T04:44:10.539Z,3.90
2019-03-25T04:46:45.679Z,3.90
2019-03-25T04:49:16.618Z,3.90
2019-03-25T04:51:47.582Z,3.91
2019-03-25T04:54:19.338Z,3.91
2019-03-25T04:56:50.235Z,3.94
2019-03-25T04:59:21.176Z,3.96
2019-03-25T05:01:52.065Z,4.00
2019-03-25T05:04:22.989Z,4.04
2019-03-25T05:06:53.892Z,4.08
2019-03-25T05:09:24.837Z,4.14
2019-03-25T05:11:55.735Z,4.20
2019-03-25T05:14:26.665Z,4.27
2019-03-25T05:16:57.566Z,4.35
2019-03-25T05:19:28.500Z,4.45
2019-03-25T05:21:59.411Z,4.52
2019-03-25T05:24:30.430Z,4.58
2019-03-25T05:27:02.127Z,4.68
2019-03-25T05:29:33.056Z,4.82
2019-03-25T05:32:03.969Z,4.98
2019-03-25T05:34:34.881Z,5.15
2019-03-25T05:37:05.851Z,5.28
2019-03-25T05:39:37.590Z,5.37
2019-03-25T05:42:08.484Z,5.43
2019-03-25T05:44:39.419Z,5.51
2019-03-25T05:47:10.387Z,5.65
2019-03-25T05:49:41.318Z,5.77
2019-03-25T05:52:12.240Z,5.97
2019-03-25T05:54:43.990Z,6.11
2019-03-25T05:57:14.896Z,6.19
2019-03-25T05:59:45.826Z,6.24
2019-03-25T06:02:16.758Z,6.45
2019-03-25T06:04:47.667Z,6.74
2019-03-25T06:07:18.566Z,7.05
2019-03-25T06:09:49.507Z,7.31
2019-03-25T06:12:20.414Z,7.48
2019-03-25T06:14:51.343Z,7.61
2019-03-25T06:17:22.315Z,7.68
2019-03-25T06:19:53.233Z,7.80
2019-03-25T06:22:24.198Z,8.09
2019-03-25T06:24:55.289Z,8.18
2019-03-25T06:27:26.187Z,8.22
2019-03-25T06:29:57.122Z,8.20
2019-03-25T06:32:28.026Z,8.20
2019-03-25T06:34:58.955Z,8.20
2019-03-25T06:37:29.856Z,8.14
2019-03-25T06:40:01.604Z,8.08
2019-03-25T06:42:32.512Z,8.04
2019-03-25T06:45:03.536Z,7.97
2019-03-25T06:47:34.454Z,7.90
2019-03-25T06:50:07.932Z,7.83
2019-03-25T06:52:38.854Z,7.72
2019-03-25T06:55:10.907Z,7.68
2019-03-25T06:57:42.020Z,7.59
2019-03-25T07:00:13.350Z,7.47
2019-03-25T07:02:44.251Z,7.43
2019-03-25T07:05:16.169Z,7.38
2019-03-25T07:07:47.074Z,7.31
2019-03-25T07:10:36.719Z,7.28
2019-03-25T07:13:07.719Z,7.18
2019-03-25T07:15:39.440Z,7.13
2019-03-25T07:18:10.370Z,6.98
2019-03-25T07:20:41.276Z,6.99
2019-03-25T07:23:12.168Z,7.01
2019-03-25T07:25:43.898Z,7.02
2019-03-25T07:28:15.610Z,7.05
2019-03-25T07:30:46.528Z,7.02
2019-03-25T07:33:17.425Z,7.05
2019-03-25T07:35:48.361Z,7.07
2019-03-25T07:38:19.269Z,7.10
2019-03-25T07:40:50.493Z,7.10
2019-03-25T07:43:21.387Z,7.12
2019-03-25T07:45:52.314Z,7.15
2019-03-25T07:48:23.223Z,7.12
2019-03-25T07:50:54.150Z,7.11
2019-03-25T07:53:25.064Z,7.15
2019-03-25T07:55:56.163Z,7.13
2019-03-25T07:58:27.037Z,7.17
2019-03-25T08:00:57.958Z,7.22
2019-03-25T08:03:28.851Z,7.25
2019-03-25T08:05:59.788Z,7.32
2019-03-25T08:08:30.695Z,7.38
2019-03-25T08:11:01.659Z,7.48
2019-03-25T08:13:32.580Z,7.57
2019-03-25T08:16:03.636Z,7.66
2019-03-25T08:18:34.572Z,7.70
2019-03-25T08:21:06.426Z,7.76
2019-03-25T08:23:37.337Z,7.84
2019-03-25T08:26:09.093Z,7.93
2019-03-25T08:28:40.751Z,8.01
2019-03-25T08:31:11.748Z,8.06
2019-03-25T08:33:42.650Z,8.18
2019-03-25T08:36:13.602Z,8.28
2019-03-25T08:38:44.540Z,8.35
2019-03-25T08:41:15.440Z,8.45
2019-03-25T08:43:47.186Z,8.56
2019-03-25T08:46:18.082Z,8.66
2019-03-25T08:48:48.996Z,8.75
2019-03-25T08:51:19.894Z,8.89
2019-03-25T08:53:50.816Z,9.00
2019-03-25T08:56:21.734Z,9.10
2019-03-25T08:58:52.672Z,9.25
2019-03-25T09:01:23.560Z,9.50
2019-03-25T09:03:54.491Z,9.76
2019-03-25T09:06:25.384Z,9.92
2019-03-25T09:08:56.304Z,10.09
2019-03-25T09:11:27.228Z,10.25
2019-03-25T09:13:58.230Z,10.43
2019-03-25T09:16:29.150Z,10.56
2019-03-25T09:19:00.074Z,10.70
2019-03-25T09:21:30.985Z,10.78
2019-03-25T09:24:01.923Z,10.86
2019-03-25T09:26:36.381Z,10.77
2019-03-25T09:29:08.934Z,10.72
2019-03-25T09:31:39.853Z,10.83
2019-03-25T09:34:10.868Z,10.81
2019-03-25T09:36:41.762Z,10.84
2019-03-25T09:39:12.756Z,10.86
2019-03-25T09:41:43.650Z,10.71
2019-03-25T09:44:14.627Z,10.76
2019-03-25T09:46:47.410Z,10.66
2019-03-25T09:49:18.329Z,10.78
2019-03-25T09:51:49.292Z,10.80
2019-03-25T09:54:20.229Z,10.90
2019-03-25T09:56:51.151Z,11.02
2019-03-25T09:59:22.984Z,11.03
2019-03-25T10:01:53.916Z,11.24
2019-03-25T10:04:24.851Z,11.49
2019-03-25T10:06:55.769Z,11.67
2019-03-25T10:09:26.707Z,11.90
2019-03-25T10:11:57.614Z,12.18
2019-03-25T10:14:31.437Z,12.35
2019-03-25T10:17:02.336Z,12.43
2019-03-25T10:19:33.289Z,12.47
2019-03-25T10:22:04.200Z,12.47
2019-03-25T10:24:35.126Z,12.42
2019-03-25T10:27:06.023Z,12.36
2019-03-25T10:29:39.381Z,12.38
2019-03-25T10:32:10.292Z,12.38
2019-03-25T10:34:41.221Z,12.34
2019-03-25T10:37:12.325Z,12.33
2019-03-25T10:39:43.264Z,12.38
2019-03-25T10:42:14.173Z,12.47
2019-03-25T10:44:46.000Z,12.42
2019-03-25T10:47:16.897Z,12.40
2019-03-25T10:49:47.851Z,12.29
2019-03-25T10:52:18.755Z,12.10
2019-03-25T10:54:49.787Z,11.95
2019-03-25T10:57:20.760Z,11.81
2019-03-25T10:59:52.518Z,11.59
2019-03-25T11:02:23.402Z,11.56
2019-03-25T11:04:54.338Z,11.61
2019-03-25T11:07:25.342Z,11.59
2019-03-25T11:09:56.306Z,11.57
2019-03-25T11:12:27.273Z,11.56
2019-03-25T11:14:59.829Z,11.48
2019-03-25T11:17:30.725Z,11.42
2019-03-25T11:20:01.667Z,11.37
2019-03-25T11:22:32.579Z,11.34
2019-03-25T11:25:03.815Z,11.26
2019-03-25T11:27:34.706Z,11.24
2019-03-25T11:30:11.882Z,11.06
2019-03-25T11:32:42.792Z,10.43
2019-03-25T11:35:13.929Z,10.26
2019-03-25T11:37:44.835Z,10.02
2019-03-25T11:40:16.471Z,9.67
2019-03-25T11:42:47.373Z,8.98
2019-03-25T11:45:20.775Z,8.82
2019-03-25T11:47:51.671Z,8.65
2019-03-25T11:50:22.602Z,8.43
2019-03-25T11:52:53.495Z,8.34
2019-03-25T11:55:24.422Z,8.11
2019-03-25T11:57:55.337Z,8.12
2019-03-25T12:00:27.887Z,8.05
2019-03-25T12:02:58.783Z,7.99
2019-03-25T12:05:29.714Z,8.20
2019-03-25T12:08:00.592Z,8.38
2019-03-25T12:10:31.519Z,8.21
2019-03-25T12:13:02.413Z,8.03
2019-03-25T12:15:33.507Z,8.10
2019-03-25T12:18:04.638Z,8.08
2019-03-25T12:20:35.553Z,8.21
2019-03-25T12:23:06.454Z,8.28
2019-03-25T12:25:37.364Z,8.39
2019-03-25T12:28:08.278Z,8.33
2019-03-25T12:30:40.802Z,8.35
2019-03-25T12:33:11.694Z,8.22
2019-03-25T12:35:42.725Z,8.34
2019-03-25T12:38:13.629Z,8.22
2019-03-25T12:40:44.644Z,8.12
2019-03-25T12:43:15.556Z,8.17
2019-03-25T12:45:47.297Z,7.91
2019-03-25T12:48:18.183Z,7.98
2019-03-25T12:50:49.113Z,7.94
2019-03-25T12:53:20.009Z,8.08
2019-03-25T12:55:50.991Z,8.16
2019-03-25T12:58:21.889Z,8.18
2019-03-25T13:00:53.635Z,8.35
2019-03-25T13:03:24.519Z,8.39
2019-03-25T13:05:55.547Z,8.43
2019-03-25T13:08:32.978Z,8.28
2019-03-25T13:10:59.142Z,8.09
2019-03-25T13:13:30.087Z,8.14
2019-03-25T13:16:01.857Z,7.99
2019-03-25T13:18:32.812Z,8.08
2019-03-25T13:21:03.724Z,8.14
2019-03-25T13:23:34.616Z,8.02
2019-03-25T13:26:05.548Z,8.06
2019-03-25T13:28:36.446Z,7.75
2019-03-25T13:31:09.066Z,7.89
2019-03-25T13:33:40.032Z,7.88
2019-03-25T13:36:10.988Z,7.65
2019-03-25T13:38:41.887Z,7.80
2019-03-25T13:41:13.750Z,7.86
2019-03-25T13:43:44.644Z,7.94
2019-03-25T13:46:15.597Z,8.02
2019-03-25T13:48:46.489Z,8.07
2019-03-25T13:51:19.284Z,8.04
2019-03-25T13:53:50.185Z,7.93
2019-03-25T13:56:21.131Z,7.89
2019-03-25T13:58:52.038Z,8.00
2019-03-25T14:01:22.981Z,8.07
2019-03-25T14:03:53.879Z,7.97
2019-03-25T14:06:24.805Z,8.03
2019-03-25T14:08:55.890Z,7.97
2019-03-25T14:11:26.888Z,8.15
2019-03-25T14:14:00.117Z,8.19
2019-03-25T14:16:31.213Z,8.26
2019-03-25T14:19:02.116Z,8.39
2019-03-25T14:21:33.043Z,8.45
2019-03-25T14:24:03.950Z,8.42
2019-03-25T14:26:34.863Z,8.39
2019-03-25T14:29:05.820Z,8.41
2019-03-25T14:31:37.666Z,8.28
2019-03-25T14:34:08.568Z,8.25
2019-03-25T14:36:39.494Z,8.21
2019-03-25T14:39:10.376Z,8.15
2019-03-25T14:41:41.370Z,8.10
2019-03-25T14:44:12.330Z,8.12
2019-03-25T14:46:44.084Z,8.18
2019-03-25T14:49:14.976Z,8.26
2019-03-25T14:51:45.909Z,8.21
2019-03-25T14:54:16.816Z,8.26
2019-03-25T14:56:47.752Z,8.33
2019-03-25T14:59:18.645Z,8.35
2019-03-25T15:01:50.388Z,8.40
2019-03-25T15:04:21.280Z,8.38
2019-03-25T15:06:52.205Z,8.17
2019-03-25T15:09:23.098Z,8.24
2019-03-25T15:11:54.032Z,8.35
2019-03-25T15:14:24.927Z,8.42
2019-03-25T15:16:56.695Z,8.45
2019-03-25T15:19:27.601Z,8.45
2019-03-25T15:21:58.513Z,8.35
2019-03-25T15:24:29.415Z,8.30
2019-03-25T15:27:00.335Z,8.33
2019-03-25T15:29:31.219Z,8.25
2019-03-25T15:32:04.447Z,8.15
2019-03-25T15:34:35.299Z,8.18
2019-03-25T15:37:06.225Z,8.09
2019-03-25T15:39:46.399Z,8.08
2019-03-25T15:42:09.742Z,8.05
2019-03-25T15:44:40.644Z,8.03
2019-03-25T15:47:13.480Z,8.01
2019-03-25T15:49:44.395Z,7.95
2019-03-25T15:52:15.314Z,7.83
2019-03-25T15:54:46.207Z,7.63
2019-03-25T15:57:17.156Z,7.48
2019-03-25T15:59:48.041Z,7.40
2019-03-25T16:02:19.806Z,7.30
2019-03-25T16:04:52.774Z,7.27
2019-03-25T16:07:23.780Z,7.27
2019-03-25T16:09:54.671Z,7.27
2019-03-25T16:12:25.609Z,7.21
2019-03-25T16:14:56.491Z,7.22
2019-03-25T16:17:27.583Z,7.20
2019-03-25T16:19:58.480Z,7.23
2019-03-25T16:22:29.400Z,7.17
2019-03-25T16:25:00.447Z,7.14
2019-03-25T16:27:31.484Z,7.12
2019-03-25T16:30:02.391Z,7.06
2019-03-25T16:32:35.107Z,7.06
2019-03-25T16:35:06.884Z,7.03
2019-03-25T16:37:37.810Z,6.88
2019-03-25T16:40:08.922Z,6.84
2019-03-25T16:42:40.284Z,6.82
2019-03-25T16:45:11.942Z,6.79
2019-03-25T16:47:43.780Z,6.72
2019-03-25T16:50:14.698Z,6.67
2019-03-25T16:52:45.700Z,6.67
2019-03-25T16:55:16.609Z,6.62
2019-03-25T16:57:47.544Z,6.58
2019-03-25T17:00:27.353Z,6.59
2019-03-25T17:02:54.228Z,6.57
2019-03-25T17:05:25.155Z,6.56
2019-03-25T17:07:56.099Z,6.56
2019-03-25T17:10:27.067Z,6.52
2019-03-25T17:12:58.006Z,6.50
2019-03-25T17:15:31.320Z,6.50
2019-03-25T17:18:04.744Z,6.52
2019-03-25T17:20:35.656Z,6.53
2019-03-25T17:23:06.585Z,6.54
2019-03-25T17:25:37.504Z,6.51
2019-03-25T17:28:08.428Z,6.54
2019-03-25T17:30:39.324Z,6.60
2019-03-25T17:33:12.189Z,6.63
2019-03-25T17:35:43.084Z,6.66
2019-03-25T17:38:14.021Z,6.65
2019-03-25T17:40:45.042Z,6.72
2019-03-25T17:43:15.989Z,6.73
2019-03-25T17:45:46.885Z,6.72
2019-03-25T17:48:20.455Z,6.75
2019-03-25T17:50:52.902Z,6.74
2019-03-25T17:53:23.176Z,6.68
2019-03-25T17:55:54.082Z,6.70
2019-03-25T17:58:25.018Z,6.71
2019-03-25T18:01:00.949Z,6.71
2019-03-25T18:03:32.799Z,6.68
2019-03-25T18:06:06.479Z,6.68
2019-03-25T18:08:37.411Z,6.66
2019-03-25T18:11:08.308Z,6.62
2019-03-25T18:13:39.244Z,6.58
2019-03-25T18:16:10.217Z,6.55
2019-03-25T18:18:41.986Z,6.50
2019-03-25T18:21:12.902Z,6.53
2019-03-25T18:23:44.641Z,6.47
2019-03-25T18:26:15.576Z,6.48
2019-03-25T18:28:46.519Z,6.49
2019-03-25T18:31:17.428Z,6.45
2019-03-25T18:33:49.246Z,6.32
2019-03-25T18:36:20.181Z,6.30
2019-03-25T18:38:51.169Z,6.21
2019-03-25T18:41:22.154Z,6.20
2019-03-25T18:43:53.092Z,6.11
2019-03-25T18:46:23.992Z,6.01
2019-03-25T18:48:55.763Z,5.92
2019-03-25T18:51:26.666Z,5.92
2019-03-25T18:53:57.587Z,5.87
2019-03-25T18:56:28.506Z,5.82
2019-03-25T18:58:59.454Z,5.80
2019-03-25T19:01:30.470Z,5.76
2019-03-25T19:04:02.227Z,5.72
2019-03-25T19:06:33.238Z,5.66
2019-03-25T19:09:05.665Z,5.58
2019-03-25T19:11:36.575Z,5.59
2019-03-25T19:14:07.522Z,5.57
2019-03-25T19:16:38.402Z,5.51
2019-03-25T19:19:09.454Z,5.53
2019-03-25T19:21:40.537Z,5.52
2019-03-25T19:24:11.631Z,5.58
2019-03-25T19:26:42.529Z,5.60
2019-03-25T19:29:13.501Z,5.67
2019-03-25T19:31:46.260Z,5.71
2019-03-25T19:34:18.811Z,5.77
2019-03-25T19:36:49.711Z,5.81
2019-03-25T19:39:20.658Z,5.82
2019-03-25T19:41:51.671Z,5.89
2019-03-25T19:44:22.695Z,5.94
2019-03-25T19:46:53.550Z,5.96
2019-03-25T19:49:25.358Z,6.02
2019-03-25T19:51:56.278Z,6.05
2019-03-25T19:54:27.222Z,6.12
2019-03-25T19:56:58.118Z,6.15
2019-03-25T19:59:29.034Z,6.09
2019-03-25T20:01:59.969Z,5.93
2019-03-25T20:04:31.722Z,5.94
2019-03-25T20:07:02.671Z,5.97
2019-03-25T20:09:33.564Z,5.93
2019-03-25T20:12:04.478Z,5.83
2019-03-25T20:14:35.497Z,5.79
2019-03-25T20:17:06.423Z,5.71
2019-03-25T20:19:38.084Z,5.73
2019-03-25T20:22:09.134Z,5.74
2019-03-25T20:24:40.853Z,5.70
2019-03-25T20:27:11.772Z,5.62
2019-03-25T20:29:42.764Z,5.62
2019-03-25T20:32:31.867Z,5.65
2019-03-25T20:35:07.391Z,5.61
2019-03-25T20:37:38.330Z,5.50
2019-03-25T20:40:09.587Z,5.47
2019-03-25T20:42:40.511Z,5.42
2019-03-25T20:45:11.790Z,5.44
2019-03-25T20:47:42.738Z,5.48
2019-03-25T20:50:14.987Z,5.50
2019-03-25T20:52:45.872Z,5.55
2019-03-25T20:55:18.436Z,5.61
2019-03-25T20:57:49.369Z,5.60
2019-03-25T21:00:23.269Z,5.65
2019-03-25T21:02:54.214Z,5.71
2019-03-25T21:05:25.340Z,5.73
2019-03-25T21:07:56.253Z,5.74
2019-03-25T21:10:27.208Z,5.76
2019-03-25T21:12:58.079Z,5.82
2019-03-25T21:15:28.999Z,5.85
2019-03-25T21:17:59.948Z,5.87
2019-03-25T21:20:31.724Z,5.83
2019-03-25T21:23:02.649Z,5.87
2019-03-25T21:25:33.669Z,5.89
2019-03-25T21:28:04.519Z,5.83
2019-03-25T21:30:47.373Z,5.76
2019-03-25T21:33:08.071Z,5.81
2019-03-25T21:35:40.620Z,5.79
2019-03-25T21:38:11.537Z,5.76
2019-03-25T21:40:42.505Z,5.69
2019-03-25T21:43:13.475Z,5.55
2019-03-25T21:45:44.422Z,5.44
2019-03-25T21:48:15.329Z,5.25
2019-03-25T21:50:47.922Z,5.08
2019-03-25T21:53:18.922Z,5.04
2019-03-25T21:55:49.853Z,4.95
2019-03-25T21:58:20.845Z,4.88
2019-03-25T22:00:51.866Z,4.82
2019-03-25T22:03:22.794Z,4.81
2019-03-25T22:05:53.753Z,4.78
2019-03-25T22:08:24.639Z,4.72
2019-03-25T22:10:55.563Z,4.72
2019-03-25T22:13:26.528Z,4.71
2019-03-25T22:15:57.451Z,4.68
2019-03-25T22:18:30.735Z,4.66
2019-03-25T22:21:01.796Z,4.64
2019-03-25T22:23:32.693Z,4.61
2019-03-25T22:26:03.609Z,4.58
2019-03-25T22:28:34.509Z,4.56
2019-03-25T22:31:05.434Z,4.53
2019-03-25T22:33:36.317Z,4.52
2019-03-25T22:36:08.865Z,4.49
2019-03-25T22:38:39.750Z,4.47
2019-03-25T22:41:10.674Z,4.44
2019-03-25T22:43:41.563Z,4.40
2019-03-25T22:46:12.479Z,4.35
2019-03-25T22:48:43.382Z,4.32
2019-03-25T22:51:15.251Z,4.29
2019-03-25T22:53:46.168Z,4.25
2019-03-25T22:56:17.090Z,4.21
2019-03-25T22:58:47.984Z,4.16
2019-03-25T23:01:19.823Z,4.11
2019-03-25T23:03:50.717Z,4.05
2019-03-25T23:06:21.664Z,4.00
2019-03-25T23:08:52.623Z,3.93
2019-03-25T23:11:23.553Z,3.80
2019-03-25T23:13:54.463Z,3.80
2019-03-25T23:16:30.295Z,3.70
2019-03-25T23:19:01.114Z,3.62
2019-03-25T23:21:32.052Z,3.54
2019-03-25T23:24:02.951Z,3.47
2019-03-25T23:26:33.890Z,3.38
2019-03-25T23:29:04.856Z,3.31
2019-03-25T23:31:35.802Z,3.19
2019-03-25T23:34:06.685Z,3.19
2019-03-25T23:36:39.211Z,3.17
2019-03-25T23:39:10.119Z,3.09
2019-03-25T23:41:41.065Z,3.03
2019-03-25T23:44:11.960Z,2.92
2019-03-25T23:46:42.885Z,2.92
2019-03-25T23:49:13.791Z,2.85
2019-03-25T23:51:45.569Z,2.77
2019-03-25T23:54:16.548Z,2.71
2019-03-25T23:56:47.473Z,2.65
2019-03-25T23:59:18.380Z,2.60
